Time;durP1;ratioP1;P1;durP2;ratioP2;P2;SDS_P1;SDS_P2;PMS_P1;PMS_P2;Temp;Humidity;BMP_temperature;BMP_pressure;BME280_temperature;BME280_humidity;BME280_pressure;Samples;Min_cycle;Max_cycle;Signal;HPM_P1;HPM_P2
2022/06/17 00:00:41;;;;;;;2.25;1.85;;;;;;;24.10;39.20;102098.16;4970790;28;20027;-68
2022/06/17 00:03:06;;;;;;;3.22;1.73;;;;;;;24.05;39.18;102089.63;4973835;28;20412;-68
2022/06/17 00:05:32;;;;;;;2.72;1.70;;;;;;;24.00;38.66;102100.28;4975394;28;20022;-68
2022/06/17 00:07:57;;;;;;;2.42;1.67;;;;;;;23.96;39.20;102098.94;4976892;28;20465;-68
2022/06/17 00:10:25;;;;;;;2.10;1.75;;;;;;;23.94;39.66;102095.56;4978166;28;20081;-68
2022/06/17 00:12:50;;;;;;;8.88;1.63;;;;;;;23.90;38.83;102091.50;4978276;28;20027;-69
2022/06/17 00:15:17;;;;;;;2.22;1.92;;;;;;;23.88;39.78;102078.00;4978096;28;20074;-67
2022/06/17 00:17:47;;;;;;;4.70;1.80;;;;;;;23.87;38.96;102080.94;4977983;28;20023;-68
2022/06/17 00:20:16;;;;;;;3.47;2.50;;;;;;;23.84;39.75;102081.28;4977824;28;20057;-68
2022/06/17 00:22:44;;;;;;;2.17;1.67;;;;;;;23.81;39.26;102079.78;4978114;28;20034;-68
2022/06/17 00:25:29;;;;;;;6.60;1.92;;;;;;;23.80;39.77;102075.31;4978077;28;20023;-67
2022/06/17 00:27:55;;;;;;;2.45;2.25;;;;;;;23.78;39.22;102086.44;4978153;28;20496;-68
2022/06/17 00:30:24;;;;;;;4.07;2.40;;;;;;;23.75;40.42;102084.09;4976710;28;20114;-67
2022/06/17 00:32:57;;;;;;;7.22;3.17;;;;;;;23.76;39.41;102085.78;4977877;28;20058;-68
2022/06/17 00:35:26;;;;;;;5.93;2.20;;;;;;;23.73;39.98;102082.56;4976883;28;20023;-68
2022/06/17 00:37:52;;;;;;;2.97;1.85;;;;;;;23.69;39.27;102084.84;4976699;28;20050;-68
2022/06/17 00:40:23;;;;;;;3.47;2.30;;;;;;;23.65;39.96;102088.97;4976300;28;20027;-68
2022/06/17 00:42:49;;;;;;;3.97;2.13;;;;;;;23.60;39.47;102088.66;4977671;28;20023;-68
2022/06/17 00:45:21;;;;;;;2.92;2.13;;;;;;;23.55;39.94;102088.38;4977709;28;20423;-67
2022/06/17 00:47:55;;;;;;;3.87;2.13;;;;;;;23.52;40.58;102083.25;4977491;28;20432;-68
2022/06/17 00:50:44;;;;;;;4.57;2.40;;;;;;;23.47;39.65;102085.72;4977583;28;20058;-68
2022/06/17 00:53:19;;;;;;;3.65;2.22;;;;;;;23.43;40.60;102084.34;4967003;28;20043;-68
2022/06/17 00:56:02;;;;;;;5.68;2.00;;;;;;;23.39;40.04;102096.72;4960261;28;20066;-67
2022/06/17 00:58:34;;;;;;;10.93;2.42;;;;;;;23.37;39.87;102108.81;4959606;28;20039;-69
2022/06/17 01:01:00;;;;;;;2.47;2.28;;;;;;;23.35;40.36;102098.06;4959912;28;20548;-68
2022/06/17 01:03:30;;;;;;;4.70;2.15;;;;;;;23.35;39.69;102111.75;4960200;28;20026;-68
2022/06/17 01:06:02;;;;;;;3.33;2.22;;;;;;;23.31;39.97;102106.81;4960149;28;20122;-68
2022/06/17 01:11:30;;;;;;;2.50;2.00;;;;;;;23.20;40.99;102110.78;4977080;28;20543;-68
2022/06/17 01:13:55;;;;;;;7.63;2.55;;;;;;;23.14;40.67;102117.00;4943815;28;20026;-68
2022/06/17 01:16:29;;;;;;;4.55;2.05;;;;;;;23.11;40.42;102126.44;4959752;28;20030;-69
2022/06/17 01:18:56;;;;;;;4.82;2.90;;;;;;;23.08;40.46;102117.72;4975672;28;20038;-68
2022/06/17 01:21:28;;;;;;;3.03;2.08;;;;;;;23.03;41.04;102114.69;4959749;28;20085;-68
2022/06/17 01:23:54;;;;;;;2.60;2.33;;;;;;;23.00;41.25;102109.56;4959635;28;20500;-68
2022/06/17 01:26:19;;;;;;;5.38;2.28;;;;;;;22.99;40.58;102116.06;4976934;28;20062;-68
2022/06/17 01:28:45;;;;;;;3.67;2.97;;;;;;;23.00;40.44;102110.41;4976783;28;20027;-68
2022/06/17 01:31:11;;;;;;;7.40;2.85;;;;;;;22.99;41.51;102105.13;4976863;28;20034;-68
2022/06/17 01:33:38;;;;;;;2.35;2.10;;;;;;;22.96;41.12;102116.41;4959635;28;20023;-68
2022/06/17 01:36:05;;;;;;;4.88;2.50;;;;;;;22.93;41.47;102116.75;4976459;28;20030;-68
2022/06/17 01:38:32;;;;;;;3.42;2.40;;;;;;;22.90;40.75;102109.78;4976876;28;20030;-68
2022/06/17 01:40:59;;;;;;;4.03;2.60;;;;;;;22.89;40.84;102107.25;4976842;28;20435;-68
2022/06/17 01:43:30;;;;;;;6.55;2.83;;;;;;;22.85;41.42;102111.34;4975534;28;20027;-68
2022/06/17 01:46:00;;;;;;;3.15;2.47;;;;;;;22.84;41.92;102120.56;4959354;28;20572;-68
2022/06/17 01:48:28;;;;;;;4.22;3.03;;;;;;;22.82;41.74;102118.00;4959178;28;20161;-68
2022/06/17 01:50:56;;;;;;;3.00;2.20;;;;;;;22.79;41.30;102112.91;4975387;28;20035;-68
2022/06/17 01:53:27;;;;;;;5.57;2.88;;;;;;;22.77;41.82;102114.13;4958914;28;20038;-68
2022/06/17 01:55:58;;;;;;;3.30;2.30;;;;;;;22.73;41.79;102110.00;4959390;28;20132;-67
2022/06/17 01:58:36;;;;;;;4.35;2.40;;;;;;;22.69;42.13;102116.88;4958826;28;20046;-68
2022/06/17 02:01:03;;;;;;;5.50;2.85;;;;;;;22.65;41.38;102121.84;4958355;28;20069;-68
2022/06/17 02:03:32;;;;;;;2.50;2.17;;;;;;;22.61;42.10;102115.84;4976106;28;20031;-68
2022/06/17 02:06:09;;;;;;;4.43;2.60;;;;;;;22.59;42.16;102117.91;4958831;28;20555;-68
2022/06/17 02:08:35;;;;;;;6.15;2.78;;;;;;;22.57;41.81;102114.50;4975060;28;20030;-68
2022/06/17 02:11:03;;;;;;;6.32;2.45;;;;;;;22.55;42.19;102119.28;4959163;28;20062;-68
2022/06/17 02:13:30;;;;;;;5.57;2.58;;;;;;;22.53;41.25;102113.13;4958722;28;20030;-68
2022/06/17 02:15:59;;;;;;;3.58;2.63;;;;;;;22.50;41.38;102110.75;4975648;28;20081;-69
2022/06/17 02:18:24;;;;;;;3.78;2.67;;;;;;;22.46;41.74;102109.41;4975760;28;20031;-68
2022/06/17 02:20:52;;;;;;;2.97;2.28;;;;;;;22.46;41.42;102116.75;4975689;28;20080;-68
2022/06/17 02:23:19;;;;;;;5.13;2.67;;;;;;;22.44;41.80;102110.63;4975682;28;20110;-68
2022/06/17 02:25:48;;;;;;;13.45;3.17;;;;;;;22.42;41.62;102109.91;4975606;28;20455;-68
2022/06/17 02:28:16;;;;;;;7.18;2.60;;;;;;;22.40;41.57;102104.66;4975559;28;20019;-68
2022/06/17 02:30:42;;;;;;;4.15;2.50;;;;;;;22.40;41.62;102098.31;4975564;28;20485;-68
2022/06/17 02:33:09;;;;;;;5.68;2.53;;;;;;;22.38;42.10;102109.44;4974402;28;20095;-69
2022/06/17 02:36:07;;;;;;;6.28;2.60;;;;;;;22.37;42.76;102112.34;4974134;28;20161;-69
2022/06/17 02:38:33;;;;;;;3.20;2.50;;;;;;;22.35;41.47;102119.84;4973769;28;20035;-68
2022/06/17 02:41:05;;;;;;;11.55;2.88;;;;;;;22.32;41.95;102115.59;4974411;28;20082;-69
2022/06/17 02:43:33;;;;;;;11.05;3.05;;;;;;;22.30;42.01;102105.88;4975102;28;20026;-68
2022/06/17 02:46:07;;;;;;;3.95;2.60;;;;;;;22.27;41.77;102112.53;4975269;28;20042;-68
2022/06/17 02:48:38;;;;;;;3.22;2.63;;;;;;;22.26;41.63;102124.47;4957788;28;20015;-68
2022/06/17 02:51:04;;;;;;;5.70;3.03;;;;;;;22.24;42.21;102117.50;4975271;28;20034;-68
2022/06/17 02:53:33;;;;;;;4.55;3.03;;;;;;;22.23;41.88;102124.81;4975365;28;20023;-69
2022/06/17 02:56:00;;;;;;;5.90;3.00;;;;;;;22.21;42.51;102129.63;4975449;28;20034;-69
2022/06/17 02:58:36;;;;;;;5.55;2.65;;;;;;;22.23;42.52;102132.16;4974880;28;20184;-68
2022/06/17 03:01:04;;;;;;;4.25;2.67;;;;;;;22.22;42.33;102131.28;4957851;28;20054;-68
2022/06/17 03:03:29;;;;;;;3.72;2.47;;;;;;;22.20;42.59;102116.97;4973780;28;20435;-69
2022/06/17 03:05:55;;;;;;;5.03;3.05;;;;;;;22.19;42.58;102125.34;4974952;28;20037;-68
2022/06/17 03:08:28;;;;;;;6.90;2.80;;;;;;;22.17;42.27;102117.31;4957539;28;20365;-69
2022/06/17 03:10:56;;;;;;;5.20;3.10;;;;;;;22.13;42.51;102118.72;4973913;28;20365;-68
2022/06/17 03:13:30;;;;;;;7.18;3.08;;;;;;;22.10;43.08;102115.47;4972896;28;20436;-68
2022/06/17 03:15:57;;;;;;;10.77;2.95;;;;;;;22.08;42.77;102103.88;4957277;28;20031;-69
2022/06/17 03:18:24;;;;;;;5.40;3.30;;;;;;;22.08;42.51;102114.78;4973502;28;20023;-68
2022/06/17 03:20:50;;;;;;;5.93;3.33;;;;;;;22.05;42.74;102107.81;4973890;28;20432;-69
2022/06/17 03:23:49;;;;;;;3.60;3.17;;;;;;;22.07;42.72;102104.88;4957671;28;20035;-69
2022/06/17 03:26:18;;;;;;;4.07;2.80;;;;;;;22.04;42.64;102103.38;4951437;28;20038;-69
2022/06/17 03:28:45;;;;;;;4.13;2.53;;;;;;;22.04;43.10;102096.03;4973399;28;20019;-69
2022/06/17 03:31:25;;;;;;;7.88;3.10;;;;;;;22.05;42.96;102103.19;4957705;28;20025;-69
2022/06/17 03:33:53;;;;;;;4.00;3.05;;;;;;;22.07;42.87;102108.47;4957431;28;20054;-69
2022/06/17 03:36:37;;;;;;;5.00;3.17;;;;;;;22.11;43.38;102111.72;4957406;28;20027;-68
2022/06/17 03:39:07;;;;;;;6.25;3.05;;;;;;;22.13;43.40;102113.25;4974628;28;20137;-68
2022/06/17 03:41:42;;;;;;;5.20;2.90;;;;;;;22.17;43.51;102117.31;4974715;28;20023;-69
2022/06/17 03:44:19;;;;;;;3.80;3.30;;;;;;;22.22;43.62;102119.56;4973204;28;20038;-68
2022/06/17 03:46:50;;;;;;;4.40;3.05;;;;;;;22.25;42.76;102120.03;4974516;28;20052;-68
2022/06/17 03:49:23;;;;;;;5.63;3.38;;;;;;;22.30;42.91;102123.13;4974516;28;20101;-68
2022/06/17 03:51:51;;;;;;;3.95;3.03;;;;;;;22.37;43.90;102121.38;4974562;28;20026;-69
2022/06/17 03:54:17;;;;;;;5.72;3.70;;;;;;;22.42;43.22;102123.56;4974423;28;20038;-68
2022/06/17 03:56:47;;;;;;;5.80;3.15;;;;;;;22.49;43.32;102121.88;4974339;28;20034;-68
2022/06/17 03:59:16;;;;;;;4.82;3.03;;;;;;;22.58;43.31;102135.31;4974293;28;20047;-68
2022/06/17 04:01:48;;;;;;;5.95;3.42;;;;;;;22.70;43.68;102135.00;4957284;28;20041;-68
2022/06/17 04:04:17;;;;;;;6.45;2.88;;;;;;;22.79;43.22;102139.38;4957228;28;20026;-69
2022/06/17 04:06:45;;;;;;;8.48;3.80;;;;;;;22.89;43.26;102134.56;4973108;28;20022;-69
2022/06/17 04:09:30;;;;;;;4.70;3.30;;;;;;;22.98;42.75;102139.78;4974188;28;20037;-68
2022/06/17 04:12:05;;;;;;;4.60;2.92;;;;;;;23.07;43.14;102143.34;4974483;28;20101;-68
2022/06/17 04:14:44;;;;;;;7.03;3.25;;;;;;;23.20;43.38;102149.06;4974156;28;20061;-68
2022/06/17 04:17:21;;;;;;;6.88;3.13;;;;;;;23.32;43.39;102150.38;4974244;28;20055;-68
2022/06/17 04:19:51;;;;;;;6.80;3.30;;;;;;;23.46;43.18;102149.66;4973095;28;20033;-69
2022/06/17 04:22:25;;;;;;;4.82;3.30;;;;;;;23.61;42.69;102150.59;4973465;28;20050;-68
2022/06/17 04:24:58;;;;;;;8.48;4.10;;;;;;;23.74;42.68;102147.22;4976405;28;20102;-68
2022/06/17 04:27:23;;;;;;;4.22;3.33;;;;;;;23.87;42.44;102152.09;4977916;28;20019;-68
2022/06/17 04:29:51;;;;;;;5.53;3.17;;;;;;;23.96;42.22;102153.69;4960362;28;20027;-68
2022/06/17 04:32:31;;;;;;;5.95;2.72;;;;;;;24.05;43.13;102149.88;4976843;28;20030;-69
2022/06/17 04:34:56;;;;;;;9.13;3.08;;;;;;;24.16;42.89;102146.72;4960552;28;20054;-68
2022/06/17 04:37:22;;;;;;;4.72;3.38;;;;;;;24.25;41.90;102145.59;4977731;28;20050;-68
2022/06/17 04:39:52;;;;;;;6.32;3.22;;;;;;;24.31;42.34;102129.28;4976470;28;20388;-68
2022/06/17 04:42:21;;;;;;;3.83;2.88;;;;;;;24.39;42.77;102133.81;4977468;28;20031;-68
2022/06/17 04:44:49;;;;;;;8.73;3.15;;;;;;;24.51;42.03;102129.56;4976139;28;20041;-68
2022/06/17 04:47:19;;;;;;;5.72;2.88;;;;;;;24.60;42.14;102124.81;4977419;28;20035;-68
2022/06/17 04:49:49;;;;;;;8.73;2.92;;;;;;;24.69;42.38;102127.28;4977613;28;20384;-68
2022/06/17 04:52:26;;;;;;;6.28;3.17;;;;;;;24.77;42.22;102123.59;4977566;28;20464;-67
2022/06/17 04:54:53;;;;;;;7.03;2.72;;;;;;;24.80;41.40;102112.28;4977447;28;20395;-68
2022/06/17 04:57:19;;;;;;;4.47;2.67;;;;;;;24.90;42.26;102116.41;4960130;28;20109;-68
2022/06/17 04:59:45;;;;;;;3.20;2.40;;;;;;;25.01;41.81;102117.00;4977298;28;20443;-68
2022/06/17 05:02:21;;;;;;;3.95;2.58;;;;;;;25.08;41.80;102109.69;4960077;28;20117;-68
2022/06/17 05:04:51;;;;;;;3.83;2.25;;;;;;;25.08;41.39;102110.53;4977480;28;20026;-68
2022/06/17 05:07:17;;;;;;;8.07;2.90;;;;;;;25.10;41.35;102107.63;4977273;28;20432;-68
2022/06/17 05:09:46;;;;;;;8.50;2.88;;;;;;;25.11;42.04;102098.31;4977078;28;20034;-67
2022/06/17 05:12:17;;;;;;;5.65;3.53;;;;;;;25.15;42.21;102099.66;4959727;28;20030;-68
2022/06/17 05:14:50;;;;;;;3.38;2.55;;;;;;;25.14;41.88;102089.72;4976923;28;20027;-68
2022/06/17 05:17:16;;;;;;;4.22;2.42;;;;;;;25.16;42.13;102101.34;4976827;28;20026;-68
2022/06/17 05:19:41;;;;;;;3.90;2.05;;;;;;;25.20;41.36;102108.16;4976979;28;20033;-68
2022/06/17 05:22:13;;;;;;;6.07;2.50;;;;;;;25.26;41.65;102105.50;4976715;28;20058;-68
2022/06/17 05:24:39;;;;;;;5.03;2.20;;;;;;;25.33;41.54;102100.06;4959393;28;20062;-68
2022/06/17 05:27:05;;;;;;;7.93;2.47;;;;;;;25.39;40.96;102100.13;4959577;28;20038;-68
2022/06/17 05:29:32;;;;;;;3.08;2.78;;;;;;;25.49;41.64;102102.56;4976839;28;20034;-68
2022/06/17 05:31:57;;;;;;;4.05;2.33;;;;;;;25.70;41.32;102099.84;4976452;28;20030;-68
2022/06/17 05:34:23;;;;;;;6.80;2.30;;;;;;;25.95;41.03;102098.38;4958495;28;20397;-68
2022/06/17 05:36:49;;;;;;;2.95;2.08;;;;;;;26.29;40.49;102083.84;4976541;28;20472;-68
2022/06/17 05:39:14;;;;;;;4.47;2.13;;;;;;;26.54;40.58;102086.97;4976269;28;20031;-68
2022/06/17 05:41:39;;;;;;;3.35;1.98;;;;;;;26.78;40.16;102089.22;4976632;28;20392;-67
2022/06/17 05:44:05;;;;;;;4.85;1.77;;;;;;;26.78;40.22;102094.72;4976381;28;20062;-68
2022/06/17 05:46:31;;;;;;;7.60;2.05;;;;;;;26.82;39.79;102095.16;4976325;28;20029;-69
2022/06/17 05:48:56;;;;;;;4.53;1.75;;;;;;;26.95;40.32;102107.06;4976208;28;20106;-68
2022/06/17 05:51:22;;;;;;;3.20;1.58;;;;;;;27.03;39.32;102117.88;4976113;28;20541;-68
2022/06/17 05:53:47;;;;;;;3.95;2.15;;;;;;;27.01;39.82;102111.75;4958153;28;20023;-68
2022/06/17 05:56:13;;;;;;;5.50;1.60;;;;;;;27.00;39.60;102093.53;4975412;28;20026;-68
2022/06/17 05:58:38;;;;;;;2.92;2.28;;;;;;;26.96;39.46;102092.25;4976085;28;20047;-67
2022/06/17 06:01:04;;;;;;;3.08;1.73;;;;;;;26.93;39.80;102098.19;4975929;28;20028;-68
2022/06/17 06:03:29;;;;;;;3.47;1.65;;;;;;;26.92;39.20;102096.47;4976232;28;20034;-68
2022/06/17 06:05:54;;;;;;;9.88;1.73;;;;;;;26.96;39.19;102094.16;4976182;28;20038;-68
2022/06/17 06:08:20;;;;;;;6.32;2.10;;;;;;;27.06;39.06;102100.97;4975852;28;20055;-68
2022/06/17 06:10:46;;;;;;;4.80;1.95;;;;;;;27.14;39.48;102094.41;4975916;28;20500;-68
2022/06/17 06:13:20;;;;;;;2.88;1.40;;;;;;;27.18;39.02;102092.97;4958590;28;20026;-68
2022/06/17 06:15:48;;;;;;;2.83;1.58;;;;;;;27.32;38.56;102080.09;4975639;28;20030;-68
2022/06/17 06:18:19;;;;;;;2.22;1.90;;;;;;;27.53;38.50;102079.91;4975664;28;20523;-68
2022/06/17 06:20:46;;;;;;;6.63;2.13;;;;;;;27.75;37.75;102081.41;4958706;28;20547;-68
2022/06/17 06:23:11;;;;;;;3.45;1.73;;;;;;;28.08;37.56;102087.81;4975707;28;20029;-68
2022/06/17 06:25:37;;;;;;;2.80;2.03;;;;;;;28.15;37.52;102077.63;4975643;28;20381;-67
2022/06/17 06:28:14;;;;;;;3.55;1.67;;;;;;;28.52;37.64;102065.03;4975739;28;20113;-69
2022/06/17 06:30:40;;;;;;;4.35;1.80;;;;;;;28.93;37.05;102064.66;4975911;28;20027;-68
2022/06/17 06:33:05;;;;;;;6.85;1.80;;;;;;;29.18;36.27;102053.69;4975867;28;20029;-67
2022/06/17 06:35:36;;;;;;;2.72;1.67;;;;;;;29.05;36.45;102051.03;4958330;28;20030;-69
2022/06/17 06:38:02;;;;;;;2.22;1.48;;;;;;;28.93;37.07;102048.13;4975724;28;20019;-68
2022/06/17 06:40:28;;;;;;;9.20;1.85;;;;;;;28.84;37.69;102043.91;4975389;28;20030;-68
2022/06/17 06:42:54;;;;;;;4.05;1.50;;;;;;;28.82;37.44;102048.81;4974820;28;20164;-67
2022/06/17 06:45:26;;;;;;;3.67;1.33;;;;;;;28.78;36.95;102045.63;4975620;28;20542;-67
2022/06/17 06:47:53;;;;;;;1.83;1.67;;;;;;;28.72;37.51;102051.19;4975615;28;20074;-68
2022/06/17 06:50:22;;;;;;;2.42;1.45;;;;;;;28.64;36.87;102046.78;4975368;28;20044;-68
2022/06/17 06:52:47;;;;;;;9.32;3.20;;;;;;;28.59;36.26;102046.53;4975049;28;20023;-68
2022/06/17 06:55:13;;;;;;;2.47;1.70;;;;;;;28.57;37.12;102050.56;4975586;28;20414;-68
2022/06/17 06:57:51;;;;;;;2.33;1.60;;;;;;;28.63;36.65;102046.97;4973965;28;20445;-68
2022/06/17 07:00:22;;;;;;;5.13;2.05;;;;;;;29.05;35.81;102057.41;4975363;28;20093;-68
2022/06/17 07:02:48;;;;;;;1.50;1.40;;;;;;;29.35;35.77;102063.19;4975244;28;20042;-68
2022/06/17 07:05:14;;;;;;;2.00;1.08;;;;;;;29.48;35.15;102067.78;4975022;28;20031;-68
2022/06/17 07:07:40;;;;;;;4.57;1.30;;;;;;;29.48;34.99;102078.81;4957726;28;20069;-68
2022/06/17 07:10:08;;;;;;;2.58;1.38;;;;;;;29.57;35.65;102085.75;4957803;28;20027;-68
2022/06/17 07:12:33;;;;;;;3.97;1.50;;;;;;;29.72;35.61;102098.19;4974876;28;20069;-67
2022/06/17 07:14:59;;;;;;;3.90;1.45;;;;;;;30.01;35.12;102103.06;4974851;28;20408;-69
2022/06/17 07:17:24;;;;;;;2.33;1.35;;;;;;;30.35;34.01;102093.38;4957294;28;20023;-68
2022/06/17 07:19:49;;;;;;;2.90;1.25;;;;;;;30.74;34.04;102099.56;4974625;28;20550;-68
2022/06/17 07:22:15;;;;;;;3.35;1.25;;;;;;;30.99;33.85;102095.63;4974618;28;20078;-68
2022/06/17 07:24:40;;;;;;;2.53;1.05;;;;;;;31.17;34.11;102086.47;4974674;28;20078;-68
2022/06/17 07:27:06;;;;;;;1.40;1.10;;;;;;;31.37;33.61;102084.25;4973652;28;20023;-68
2022/06/17 07:29:31;;;;;;;1.33;1.23;;;;;;;31.65;33.28;102076.16;4974834;28;20026;-69
2022/06/17 07:31:56;;;;;;;10.77;1.35;;;;;;;32.06;33.46;102079.97;4974719;28;20031;-67
2022/06/17 07:34:22;;;;;;;3.13;1.40;;;;;;;32.42;33.36;102076.91;4974428;28;20027;-68
2022/06/17 07:42:15;;;;;;;2.28;1.33;;;;;;;32.27;32.45;102094.06;4974542;28;20045;-68
2022/06/17 07:44:40;;;;;;;1.75;1.20;;;;;;;32.36;32.84;102085.41;4974444;28;20030;-68
2022/06/17 07:47:17;;;;;;;1.67;1.23;;;;;;;32.46;32.37;102083.69;4974411;28;20063;-68
2022/06/17 07:49:42;;;;;;;2.90;1.40;;;;;;;32.61;32.22;102089.59;4974493;28;20022;-68
2022/06/17 07:52:08;;;;;;;3.47;1.45;;;;;;;32.60;32.33;102076.81;4974508;28;20369;-68
2022/06/17 07:54:34;;;;;;;4.65;0.90;;;;;;;32.83;31.67;102071.19;4974558;28;20110;-68
2022/06/17 07:56:59;;;;;;;1.50;1.15;;;;;;;33.06;31.08;102072.22;4974159;28;20054;-68
2022/06/17 07:59:25;;;;;;;1.42;1.33;;;;;;;33.27;30.90;102065.97;4977034;28;20030;-68
2022/06/17 08:01:50;;;;;;;2.13;1.50;;;;;;;33.44;30.73;102061.28;4978274;28;20114;-69
2022/06/17 08:04:15;;;;;;;1.25;1.15;;;;;;;33.49;31.52;102064.16;4978163;28;20392;-68
2022/06/17 08:06:41;;;;;;;0.80;0.80;;;;;;;33.62;31.67;102063.84;4978257;28;20096;-69
2022/06/17 08:09:06;;;;;;;4.80;1.38;;;;;;;33.82;31.24;102058.63;4978062;28;20108;-69
2022/06/17 08:11:32;;;;;;;8.50;1.15;;;;;;;34.08;31.02;102062.69;4978134;28;20441;-67
2022/06/17 08:13:57;;;;;;;3.70;1.08;;;;;;;34.23;29.69;102060.13;4978311;28;20030;-69
2022/06/17 08:16:23;;;;;;;2.83;0.90;;;;;;;34.34;29.79;102058.34;4977946;28;20034;-68
2022/06/17 08:18:48;;;;;;;1.38;0.90;;;;;;;34.50;30.29;102060.22;4977850;28;20049;-69
2022/06/17 08:21:14;;;;;;;2.75;1.30;;;;;;;34.70;30.21;102046.59;4977890;28;20036;-68
2022/06/17 08:23:40;;;;;;;1.85;1.08;;;;;;;34.87;29.35;102054.88;4978014;28;20477;-68
2022/06/17 08:26:05;;;;;;;1.10;1.00;;;;;;;35.00;29.96;102054.47;4977764;28;20556;-68
2022/06/17 08:28:30;;;;;;;1.40;1.05;;;;;;;35.14;28.82;102049.34;4977790;28;20098;-68
2022/06/17 08:30:57;;;;;;;1.38;0.95;;;;;;;35.21;28.59;102053.59;4977667;28;20134;-68
2022/06/17 08:33:28;;;;;;;3.25;1.38;;;;;;;35.38;28.15;102051.53;4977736;28;20027;-67
2022/06/17 08:35:56;;;;;;;2.20;0.95;;;;;;;35.59;28.26;102058.19;4977722;28;20081;-67
2022/06/17 08:38:29;;;;;;;1.17;1.10;;;;;;;35.78;27.44;102062.25;4977677;28;20039;-68
2022/06/17 08:40:54;;;;;;;5.38;1.40;;;;;;;35.94;27.37;102068.75;4977489;28;20078;-67
2022/06/17 08:43:36;;;;;;;5.75;1.10;;;;;;;36.07;27.61;102071.97;4977697;28;20026;-68
2022/06/17 08:46:14;;;;;;;2.47;1.00;;;;;;;36.26;26.93;102063.16;4976276;28;20019;-68
2022/06/17 08:48:54;;;;;;;8.02;1.65;;;;;;;36.49;26.86;102077.53;4977614;28;20033;-67
2022/06/17 08:51:46;;;;;;;3.03;1.15;;;;;;;36.65;26.23;102061.72;4977318;28;20041;-68
2022/06/17 08:54:22;;;;;;;3.03;1.00;;;;;;;36.82;26.67;102053.97;4977469;28;20039;-68
2022/06/17 08:57:04;;;;;;;2.85;1.52;;;;;;;36.90;25.77;102052.59;4960077;28;20488;-68
2022/06/17 08:59:32;;;;;;;7.57;1.33;;;;;;;37.00;26.32;102052.63;4960122;28;20049;-68
2022/06/17 09:02:08;;;;;;;2.58;1.38;;;;;;;37.14;25.91;102043.44;4977347;28;20526;-69
2022/06/17 09:05:00;;;;;;;1.42;0.93;;;;;;;37.31;26.08;102055.22;4960181;28;20053;-69
2022/06/17 09:07:50;;;;;;;2.92;1.17;;;;;;;37.47;25.66;102060.88;4971703;28;20150;-68
2022/06/17 09:10:47;;;;;;;3.00;2.03;;;;;;;37.60;25.09;102054.72;4976067;28;20054;-68
2022/06/17 09:13:36;;;;;;;2.08;0.95;;;;;;;37.74;24.77;102061.44;4956810;28;20069;-68
2022/06/17 09:16:23;;;;;;;5.15;1.30;;;;;;;37.90;24.95;102054.72;4959843;28;20073;-69
2022/06/17 09:18:55;;;;;;;3.03;1.45;;;;;;;38.00;25.10;102045.47;4976802;28;20546;-68
2022/06/17 09:21:26;;;;;;;;;;;;;;;38.03;25.24;102044.88;4960396;28;20023;-68
2022/06/17 09:23:52;;;;;;;1.40;1.00;;;;;;;37.86;24.39;102033.97;4960656;28;19918;-68
2022/06/17 09:26:28;;;;;;;2.10;1.30;;;;;;;37.92;24.55;102024.47;4959512;28;20385;-69
2022/06/17 09:29:08;;;;;;;1.48;1.10;;;;;;;37.99;24.20;102030.66;4976644;28;20476;-69
2022/06/17 09:31:47;;;;;;;3.72;1.30;;;;;;;38.08;24.09;102033.72;4959183;28;20481;-69
2022/06/17 09:34:19;;;;;;;1.38;1.23;;;;;;;38.22;24.41;102030.00;4959438;28;20037;-68
2022/06/17 09:36:56;;;;;;;2.10;1.17;;;;;;;38.41;24.23;102017.09;4976538;28;20031;-68
2022/06/17 09:39:43;;;;;;;3.63;1.23;;;;;;;38.56;23.45;102021.78;4976573;28;20054;-68
2022/06/17 09:42:14;;;;;;;3.58;1.08;;;;;;;38.70;23.55;102027.59;4959126;28;20120;-68
2022/06/17 09:44:43;;;;;;;2.75;1.50;;;;;;;38.84;23.87;102028.69;4976305;28;20030;-68
2022/06/17 09:47:15;;;;;;;2.38;1.48;;;;;;;38.94;23.08;102020.22;4976328;28;20404;-68
2022/06/17 09:49:49;;;;;;;13.85;3.75;;;;;;;39.05;22.37;102023.78;4976593;28;20106;-70
2022/06/17 09:52:18;;;;;;;1.98;1.10;;;;;;;39.09;22.77;102020.09;4943226;28;20034;-69
2022/06/17 09:54:48;;;;;;;2.60;1.27;;;;;;;39.19;22.53;102031.28;4959029;28;20392;-69
2022/06/17 09:57:35;;;;;;;1.92;1.23;;;;;;;39.38;23.12;102035.06;4958924;28;20058;-69
2022/06/17 10:00:05;;;;;;;1.13;0.63;;;;;;;39.56;22.86;102041.97;4958959;28;20038;-69
2022/06/17 10:03:08;;;;;;;1.25;1.05;;;;;;;39.80;22.46;102042.03;4975988;28;20042;-68
2022/06/17 10:05:43;;;;;;;1.65;1.13;;;;;;;40.19;21.63;102039.97;4975988;28;20515;-68
2022/06/17 10:08:38;;;;;;;33.85;32.15;;;;;;;40.71;21.59;102041.88;4958628;28;20019;-68
2022/06/17 10:11:18;;;;;;;80.70;77.05;;;;;;;41.46;21.65;102037.13;4958750;28;20035;-68
2022/06/17 10:13:58;;;;;;;2.80;1.50;;;;;;;42.26;21.46;102029.22;4976074;28;20535;-69
2022/06/17 10:19:26;;;;;;;2.35;1.50;;;;;;;43.94;19.54;102019.31;4961046;28;20054;-69
2022/06/17 10:22:02;;;;;;;1.38;1.27;;;;;;;43.64;19.62;102020.09;4975114;28;20062;-69
2022/06/17 10:25:05;;;;;;;1.90;1.13;;;;;;;43.19;19.79;102016.41;4958297;28;20035;-69
2022/06/17 10:27:46;;;;;;;1.50;1.35;;;;;;;42.95;20.26;102018.72;4966033;28;20043;-68
2022/06/17 10:30:15;;;;;;;3.05;1.45;;;;;;;42.80;20.37;102010.59;4975469;28;20029;-69
2022/06/17 10:32:44;;;;;;;2.65;1.80;;;;;;;42.77;20.25;102006.41;4975731;28;20157;-69
2022/06/17 10:35:24;;;;;;;2.08;1.40;;;;;;;42.91;20.34;102007.19;4975425;28;20027;-69
2022/06/17 10:37:49;;;;;;;1.70;1.60;;;;;;;43.06;19.88;102008.84;4958206;28;20030;-69
2022/06/17 10:40:16;;;;;;;1.40;1.30;;;;;;;43.13;19.40;102014.06;4975713;28;20439;-68
2022/06/17 10:42:46;;;;;;;4.38;1.85;;;;;;;43.22;19.50;102012.16;4975192;28;20532;-70
2022/06/17 10:45:14;;;;;;;4.30;1.85;;;;;;;43.40;19.54;102019.59;4975387;28;20384;-69
2022/06/17 10:47:50;;;;;;;3.22;2.95;;;;;;;43.53;19.25;102010.22;4958174;28;20053;-69
2022/06/17 10:50:24;;;;;;;2.20;1.60;;;;;;;43.61;19.09;102003.78;4975415;28;20038;-69
2022/06/17 10:52:56;;;;;;;2.28;2.05;;;;;;;43.79;19.36;101999.13;4975422;28;20118;-69
2022/06/17 10:55:28;;;;;;;3.38;1.52;;;;;;;43.98;19.22;101996.88;4957901;28;20141;-69
2022/06/17 10:58:27;;;;;;;2.15;1.10;;;;;;;44.26;19.21;101994.69;4973700;28;20058;-68
2022/06/17 11:00:58;;;;;;;7.72;2.17;;;;;;;44.39;19.31;101996.56;4926944;28;20039;-69
2022/06/17 11:03:31;;;;;;;2.65;1.30;;;;;;;44.61;18.37;101993.66;4975333;28;20074;-69
2022/06/17 11:06:00;;;;;;;3.47;1.35;;;;;;;44.80;18.32;101991.31;4975302;28;20023;-69
2022/06/17 11:08:40;;;;;;;2.97;1.20;;;;;;;45.01;18.36;101992.34;4958002;28;20073;-69
2022/06/17 11:13:57;;;;;;;6.80;1.25;;;;;;;45.25;18.84;101988.19;4974765;28;20450;-69
2022/06/17 11:16:23;;;;;;;4.68;1.25;;;;;;;45.28;18.67;101984.72;4958016;28;20118;-69
2022/06/17 11:18:55;;;;;;;2.72;1.10;;;;;;;45.39;18.73;101986.03;4975026;28;20392;-69
2022/06/17 11:21:40;;;;;;;2.95;1.00;;;;;;;45.44;18.08;101977.34;4974753;28;20030;-69
2022/06/17 11:24:06;;;;;;;1.67;1.17;;;;;;;45.36;18.40;101981.03;4957438;28;20033;-69
2022/06/17 11:26:33;;;;;;;4.82;0.93;;;;;;;45.30;18.08;101976.69;4974895;28;20049;-69
2022/06/17 11:29:22;;;;;;;2.17;0.82;;;;;;;45.41;18.03;101975.19;4974623;28;20022;-69
2022/06/17 11:31:49;;;;;;;1.92;1.65;;;;;;;45.42;18.51;101980.53;4949823;28;20150;-69
2022/06/17 11:34:17;;;;;;;1.35;1.05;;;;;;;45.30;18.14;101976.69;4974358;28;20018;-69
2022/06/17 11:36:53;;;;;;;1.42;1.38;;;;;;;45.41;17.55;101966.69;4974792;28;20045;-69
2022/06/17 11:39:31;;;;;;;1.60;1.00;;;;;;;45.59;17.70;101962.66;4957545;28;20519;-69
2022/06/17 11:41:56;;;;;;;2.85;1.02;;;;;;;45.64;17.82;101954.81;4974833;28;20019;-68
2022/06/17 11:44:24;;;;;;;4.57;1.42;;;;;;;45.42;18.02;101948.53;4974765;28;20053;-69
2022/06/17 11:46:52;;;;;;;2.25;0.93;;;;;;;45.22;17.80;101960.53;4974476;28;20039;-69
2022/06/17 11:49:19;;;;;;;2.15;1.45;;;;;;;45.25;17.70;101960.69;4974561;28;20018;-69
2022/06/17 11:51:49;;;;;;;5.63;1.33;;;;;;;45.26;17.34;101948.19;4974794;28;20499;-68
2022/06/17 11:54:28;;;;;;;5.25;0.90;;;;;;;45.38;17.33;101944.69;4957234;28;20031;-69